createdAt,value
2017-12-20T05:51:21.807Z,6.6
2017-12-20T05:52:23.406Z,6.7
2017-12-20T05:53:25.016Z,6.6
2017-12-20T05:54:26.612Z,6.6
2017-12-20T05:55:28.217Z,6.6
2017-12-20T05:56:29.827Z,6.6
2017-12-20T05:57:31.435Z,6.6
2017-12-20T05:58:33.038Z,6.7
2017-12-20T05:59:34.642Z,6.7
2017-12-20T06:00:36.249Z,6.6
2017-12-20T06:01:37.857Z,6.6
2017-12-20T06:02:39.457Z,6.7
2017-12-20T06:03:41.069Z,6.6
2017-12-20T06:04:42.671Z,6.7
2017-12-20T06:05:44.279Z,6.7
2017-12-20T06:06:45.881Z,6.7
2017-12-20T06:07:47.488Z,6.6
2017-12-20T06:08:49.093Z,6.7
2017-12-20T06:09:50.702Z,6.7
2017-12-20T06:10:52.305Z,6.7
2017-12-20T06:11:53.910Z,6.7
2017-12-20T06:12:55.518Z,6.7
2017-12-20T06:13:57.124Z,6.7
2017-12-20T06:14:58.727Z,6.6
2017-12-20T06:16:00.331Z,6.7
2017-12-20T06:17:01.938Z,6.7
2017-12-20T06:18:03.544Z,6.6
2017-12-20T06:19:05.168Z,6.7
2017-12-20T06:20:06.774Z,6.7
2017-12-20T06:21:08.375Z,6.7
2017-12-20T06:22:09.977Z,6.7
2017-12-20T06:23:11.586Z,6.8
2017-12-20T06:24:13.194Z,6.7
2017-12-20T06:25:14.803Z,6.7
2017-12-20T06:26:16.406Z,6.7
2017-12-20T06:27:18.016Z,6.7
2017-12-20T06:28:19.620Z,6.7
2017-12-20T06:29:21.221Z,6.6
2017-12-20T06:30:22.828Z,6.7
2017-12-20T06:31:24.432Z,6.8
2017-12-20T06:32:26.039Z,6.8
2017-12-20T06:33:27.643Z,6.7
2017-12-20T06:34:29.253Z,6.7
2017-12-20T06:35:30.854Z,6.7
2017-12-20T06:36:32.460Z,6.6
2017-12-20T06:37:34.068Z,6.6
2017-12-20T06:38:35.675Z,6.6
2017-12-20T06:39:37.626Z,6.7
2017-12-20T06:40:39.239Z,6.7
2017-12-20T06:41:40.849Z,6.7
2017-12-20T06:42:42.451Z,6.6
2017-12-20T06:43:44.053Z,6.6
2017-12-20T06:44:45.662Z,6.6
2017-12-20T06:45:47.266Z,6.7
2017-12-20T06:46:48.874Z,6.6
2017-12-20T06:47:50.477Z,6.6
2017-12-20T06:48:52.087Z,6.6
2017-12-20T06:49:53.687Z,6.6
2017-12-20T06:50:55.296Z,6.7
2017-12-20T06:51:56.896Z,6.7
2017-12-20T06:52:58.502Z,6.6
2017-12-20T06:54:00.111Z,6.7
2017-12-20T06:55:01.717Z,6.6
2017-12-20T06:56:03.319Z,6.7
2017-12-20T06:57:04.928Z,6.8
2017-12-20T06:58:06.528Z,6.8
2017-12-20T06:59:08.136Z,6.8
2017-12-20T07:00:09.738Z,6.8
2017-12-20T07:01:11.342Z,6.8
2017-12-20T07:02:12.952Z,6.8
2017-12-20T07:03:14.557Z,6.8
2017-12-20T07:04:16.167Z,6.8
2017-12-20T07:05:17.767Z,6.8
2017-12-20T07:06:19.374Z,6.7
2017-12-20T07:07:20.979Z,6.8
2017-12-20T07:08:22.589Z,6.9
2017-12-20T07:09:24.196Z,6.8
2017-12-20T07:10:25.803Z,6.8
2017-12-20T07:11:27.402Z,6.8
2017-12-20T07:12:29.011Z,6.8
2017-12-20T07:13:30.615Z,6.8
2017-12-20T07:14:32.223Z,6.9
2017-12-20T07:15:33.831Z,6.8
2017-12-20T07:16:35.444Z,6.9
2017-12-20T07:17:37.048Z,6.7
2017-12-20T07:18:38.651Z,6.9
2017-12-20T07:19:40.253Z,6.8
2017-12-20T07:20:41.862Z,6.8
2017-12-20T07:21:43.470Z,6.9
2017-12-20T07:22:45.072Z,6.8
2017-12-20T07:23:46.679Z,6.8
2017-12-20T07:24:48.290Z,6.8
2017-12-20T07:25:49.892Z,6.8
2017-12-20T07:26:51.497Z,6.9
2017-12-20T07:27:53.103Z,6.9
2017-12-20T07:28:54.717Z,6.9
2017-12-20T07:29:56.324Z,6.9
2017-12-20T07:30:57.930Z,6.9
2017-12-20T07:31:59.540Z,6.9
2017-12-20T07:33:01.146Z,6.8
2017-12-20T07:34:02.748Z,6.7
2017-12-20T07:35:04.360Z,6.8
2017-12-20T07:36:05.966Z,6.9
2017-12-20T07:37:07.568Z,6.7
2017-12-20T07:38:09.175Z,6.8
2017-12-20T07:39:10.786Z,6.8
2017-12-20T07:40:12.394Z,6.8
2017-12-20T07:41:13.996Z,6.8
2017-12-20T07:42:15.605Z,6.8
2017-12-20T07:43:17.214Z,6.9
2017-12-20T07:44:18.824Z,6.9
2017-12-20T07:45:20.429Z,6.9
2017-12-20T07:46:22.035Z,6.9
2017-12-20T07:47:23.643Z,6.8
2017-12-20T07:48:25.248Z,6.9
2017-12-20T07:49:26.854Z,6.9
2017-12-20T07:50:28.457Z,6.8
2017-12-20T07:51:30.068Z,7.0
2017-12-20T07:52:31.675Z,7.0
2017-12-20T07:53:33.285Z,7.0
2017-12-20T07:54:34.889Z,6.8
2017-12-20T07:55:36.502Z,7.0
2017-12-20T07:56:38.162Z,7.0
2017-12-20T07:57:39.719Z,7.0
2017-12-20T07:58:41.328Z,7.0
2017-12-20T07:59:42.934Z,7.0
2017-12-20T08:00:44.548Z,6.9
2017-12-20T08:01:46.152Z,7.0
2017-12-20T08:02:47.765Z,7.0
2017-12-20T08:03:49.370Z,6.9
2017-12-20T08:04:50.984Z,6.9
2017-12-20T08:05:52.590Z,6.9
2017-12-20T08:06:54.203Z,7.0
2017-12-20T08:07:55.813Z,7.0
2017-12-20T08:08:57.419Z,6.9
2017-12-20T08:09:59.031Z,7.0
2017-12-20T08:11:00.639Z,7.0
2017-12-20T08:12:02.243Z,7.0
2017-12-20T08:13:03.852Z,6.9
2017-12-20T08:14:05.464Z,7.0
2017-12-20T08:15:07.073Z,6.9
2017-12-20T08:16:08.684Z,7.0
2017-12-20T08:17:10.289Z,7.0
2017-12-20T08:18:11.899Z,7.0
2017-12-20T08:19:13.506Z,7.0
2017-12-20T08:20:15.119Z,7.1
2017-12-20T08:21:16.725Z,7.1
2017-12-20T08:22:18.337Z,7.1
2017-12-20T08:23:19.948Z,7.1
2017-12-20T08:24:21.551Z,7.1
2017-12-20T08:25:23.159Z,7.1
2017-12-20T08:26:24.771Z,7.1
2017-12-20T08:27:26.405Z,7.2
2017-12-20T08:28:28.014Z,7.2
2017-12-20T08:29:29.621Z,7.2
2017-12-20T08:30:31.232Z,7.2
2017-12-20T08:31:32.835Z,7.1
2017-12-20T08:32:34.449Z,7.2
2017-12-20T08:33:36.059Z,7.1
2017-12-20T08:34:37.664Z,7.2
2017-12-20T08:35:39.273Z,7.2
2017-12-20T08:36:40.887Z,7.2
2017-12-20T08:37:42.498Z,7.2
2017-12-20T08:38:44.104Z,7.2
2017-12-20T08:39:45.718Z,7.2
2017-12-20T08:40:47.328Z,7.2
2017-12-20T08:41:48.939Z,7.2
2017-12-20T08:42:50.547Z,7.1
2017-12-20T08:43:52.162Z,7.2
2017-12-20T08:44:53.765Z,7.3
2017-12-20T08:45:55.378Z,7.2
2017-12-20T08:46:57.020Z,7.2
2017-12-20T08:47:58.597Z,7.3
2017-12-20T08:49:00.203Z,7.3
2017-12-20T08:50:01.812Z,7.2
2017-12-20T08:51:03.427Z,7.2
2017-12-20T08:52:05.035Z,7.2
2017-12-20T08:53:06.647Z,7.3
2017-12-20T08:54:08.248Z,7.3
2017-12-20T08:55:09.859Z,7.3
2017-12-20T08:56:11.470Z,7.3
2017-12-20T08:57:13.077Z,7.3
2017-12-20T08:58:14.694Z,7.3
2017-12-20T08:59:16.302Z,7.3
2017-12-20T09:00:17.909Z,7.3
2017-12-20T09:01:19.514Z,7.3
2017-12-20T09:02:21.129Z,7.3
2017-12-20T09:03:22.737Z,7.3
2017-12-20T09:04:24.350Z,7.2
2017-12-20T09:05:25.959Z,7.2
2017-12-20T09:06:27.570Z,7.2
2017-12-20T09:07:29.173Z,7.2
2017-12-20T09:08:30.783Z,7.2
2017-12-20T09:09:32.391Z,7.2
2017-12-20T09:10:34.005Z,7.2
2017-12-20T09:11:35.612Z,7.2
2017-12-20T09:12:37.221Z,7.2
2017-12-20T09:13:38.834Z,7.2
2017-12-20T09:14:40.441Z,7.2
2017-12-20T09:15:42.056Z,7.2
2017-12-20T09:16:43.663Z,7.3
2017-12-20T09:17:45.276Z,7.2
2017-12-20T09:18:46.884Z,7.3
2017-12-20T09:19:48.499Z,7.3
2017-12-20T09:20:50.107Z,7.3
2017-12-20T09:21:51.721Z,7.3
2017-12-20T09:22:53.327Z,7.4
2017-12-20T09:23:54.952Z,7.4
2017-12-20T09:24:56.559Z,7.4
2017-12-20T09:25:58.175Z,7.4
2017-12-20T09:26:59.785Z,7.5
2017-12-20T09:28:01.397Z,7.5
2017-12-20T09:29:03.004Z,7.5
2017-12-20T09:30:04.618Z,7.5
2017-12-20T09:31:06.230Z,7.5
2017-12-20T09:32:07.845Z,7.6
2017-12-20T09:33:09.447Z,7.4
2017-12-20T09:34:11.064Z,7.5
2017-12-20T09:35:12.675Z,7.5
2017-12-20T09:36:14.281Z,7.6
2017-12-20T09:37:15.888Z,7.6
2017-12-20T09:38:17.503Z,7.6
2017-12-20T09:39:19.114Z,7.6
2017-12-20T09:40:20.725Z,7.6
2017-12-20T09:41:22.338Z,7.6
2017-12-20T09:42:23.949Z,7.6
2017-12-20T09:43:25.562Z,7.5
2017-12-20T09:44:27.170Z,7.7
2017-12-20T09:45:28.787Z,7.5
2017-12-20T09:46:30.395Z,7.6
2017-12-20T09:47:32.009Z,7.8
2017-12-20T09:48:33.626Z,7.7
2017-12-20T09:49:35.239Z,7.7
2017-12-20T09:50:36.846Z,7.8
2017-12-20T09:51:38.454Z,7.7
2017-12-20T09:52:40.070Z,7.7
2017-12-20T09:53:41.692Z,7.7
2017-12-20T09:54:43.296Z,7.7
2017-12-20T09:55:44.908Z,7.7
2017-12-20T09:56:46.521Z,7.7
2017-12-20T09:57:48.136Z,7.7
2017-12-20T09:58:49.742Z,7.7
2017-12-20T09:59:51.353Z,7.6
2017-12-20T10:00:52.968Z,7.7
2017-12-20T10:01:54.585Z,7.7
2017-12-20T10:02:56.193Z,7.7
2017-12-20T10:03:57.802Z,7.8
2017-12-20T10:04:59.415Z,7.8
2017-12-20T10:06:01.030Z,7.8
2017-12-20T10:07:02.638Z,7.8
2017-12-20T10:08:04.247Z,7.8
2017-12-20T10:09:05.863Z,7.8
2017-12-20T10:10:07.485Z,7.8
2017-12-20T10:11:09.092Z,7.9
2017-12-20T10:12:10.698Z,7.9
2017-12-20T10:13:12.315Z,7.9
2017-12-20T10:14:13.928Z,7.9
2017-12-20T10:15:15.536Z,7.9
2017-12-20T10:16:17.148Z,7.9
2017-12-20T10:17:18.760Z,7.9
2017-12-20T10:18:20.368Z,7.9
2017-12-20T10:19:21.985Z,7.9
2017-12-20T10:20:23.597Z,7.9
2017-12-20T10:21:25.252Z,8.0
2017-12-20T10:22:26.819Z,7.9
2017-12-20T10:23:28.435Z,7.9
2017-12-20T10:24:30.050Z,7.9
2017-12-20T10:25:31.658Z,8.0
2017-12-20T10:26:33.267Z,7.9
2017-12-20T10:27:34.877Z,8.0
2017-12-20T10:28:36.493Z,7.9
2017-12-20T10:29:38.101Z,7.8
2017-12-20T10:30:39.714Z,7.9
2017-12-20T10:31:41.339Z,7.9
2017-12-20T10:32:42.945Z,7.9
2017-12-20T10:33:44.560Z,7.9
2017-12-20T10:34:46.169Z,8.0
2017-12-20T10:35:47.779Z,7.9
2017-12-20T10:36:49.398Z,8.0
2017-12-20T10:37:51.005Z,8.0
2017-12-20T10:38:52.622Z,8.0
2017-12-20T10:39:54.232Z,8.0
2017-12-20T10:40:55.844Z,8.0
2017-12-20T10:41:57.452Z,7.9
2017-12-20T10:42:59.068Z,8.1
2017-12-20T10:44:00.680Z,8.1
2017-12-20T10:45:02.291Z,8.1
2017-12-20T10:46:03.907Z,8.1
2017-12-20T10:47:05.521Z,8.2
2017-12-20T10:48:07.131Z,8.1
2017-12-20T10:49:08.746Z,8.1
2017-12-20T10:50:10.360Z,8.2
2017-12-20T10:51:11.970Z,8.2
2017-12-20T10:52:13.586Z,8.1
2017-12-20T10:53:15.196Z,8.2
2017-12-20T10:54:16.812Z,8.1
2017-12-20T10:55:18.418Z,8.2
2017-12-20T10:56:20.033Z,8.1
2017-12-20T10:57:21.642Z,8.1
2017-12-20T10:58:23.260Z,8.2
2017-12-20T10:59:24.871Z,8.2
2017-12-20T11:00:26.483Z,8.1
2017-12-20T11:01:28.094Z,8.1
2017-12-20T11:02:29.703Z,8.1
2017-12-20T11:03:31.312Z,8.1
2017-12-20T11:04:32.931Z,8.1
2017-12-20T11:05:34.537Z,8.1
2017-12-20T11:06:36.151Z,8.1
2017-12-20T11:07:37.770Z,8.1
2017-12-20T11:08:39.376Z,8.0
2017-12-20T11:09:40.985Z,8.0
2017-12-20T11:10:42.602Z,8.2
2017-12-20T11:11:44.217Z,8.1
2017-12-20T11:12:45.823Z,8.1
2017-12-20T11:13:47.439Z,8.2
2017-12-20T11:14:49.056Z,8.1
2017-12-20T11:15:50.662Z,8.2
2017-12-20T11:16:52.275Z,8.2
2017-12-20T11:17:53.892Z,8.2
2017-12-20T11:18:55.502Z,8.1
2017-12-20T11:19:57.110Z,8.1
2017-12-20T11:20:58.721Z,8.2
2017-12-20T11:22:00.335Z,8.1
2017-12-20T11:23:01.951Z,8.2
2017-12-20T11:24:03.557Z,8.1
2017-12-20T11:25:05.169Z,8.1
2017-12-20T11:26:06.786Z,8.1
2017-12-20T11:27:08.397Z,8.2
2017-12-20T11:28:10.010Z,8.1
2017-12-20T11:29:11.628Z,8.2
2017-12-20T11:30:13.244Z,8.2
2017-12-20T11:31:14.845Z,8.2
2017-12-20T11:32:16.460Z,8.2
2017-12-20T11:33:18.068Z,8.2
2017-12-20T11:34:19.685Z,8.1
2017-12-20T11:35:21.295Z,8.1
2017-12-20T11:36:22.911Z,8.1
2017-12-20T11:37:24.524Z,8.1
2017-12-20T11:38:26.134Z,8.1
2017-12-20T11:39:27.744Z,8.2
2017-12-20T11:40:29.358Z,8.1
2017-12-20T11:41:30.970Z,8.2
2017-12-20T11:42:32.587Z,8.1
2017-12-20T11:43:34.195Z,8.1
2017-12-20T11:44:35.813Z,8.3
2017-12-20T11:45:37.419Z,8.2
2017-12-20T11:46:39.034Z,8.2
2017-12-20T11:47:40.644Z,8.1
2017-12-20T11:48:42.261Z,8.2
2017-12-20T11:49:43.877Z,8.3
2017-12-20T11:50:45.500Z,8.3
2017-12-20T11:51:47.100Z,8.2
2017-12-20T11:52:48.709Z,8.3
2017-12-20T11:53:50.325Z,8.3
2017-12-20T11:54:51.934Z,8.4
2017-12-20T11:55:53.548Z,8.4
2017-12-20T11:56:55.161Z,8.3
2017-12-20T11:57:56.780Z,8.3
2017-12-20T11:58:58.385Z,8.3
2017-12-20T12:00:00.001Z,8.3
2017-12-20T12:01:01.610Z,8.4
2017-12-20T12:02:03.226Z,8.3
2017-12-20T12:03:04.834Z,8.2
2017-12-20T12:04:06.453Z,8.2
2017-12-20T12:05:08.066Z,8.2
2017-12-20T12:06:09.679Z,8.3
2017-12-20T12:07:11.291Z,8.3
2017-12-20T12:08:12.904Z,8.3
2017-12-20T12:09:14.514Z,8.3
2017-12-20T12:10:16.135Z,8.4
2017-12-20T12:11:17.749Z,8.4
2017-12-20T12:12:19.361Z,8.4
2017-12-20T12:13:20.975Z,8.4
2017-12-20T12:14:22.585Z,8.4
2017-12-20T12:15:24.231Z,8.4
2017-12-20T12:16:25.809Z,8.4
2017-12-20T12:17:27.425Z,8.6
2017-12-20T12:18:29.032Z,8.5
2017-12-20T12:19:30.646Z,8.5
2017-12-20T12:20:32.262Z,8.5
2017-12-20T12:21:33.874Z,8.4
2017-12-20T12:22:35.483Z,8.5
2017-12-20T12:23:37.092Z,8.5
2017-12-20T12:24:38.714Z,8.6
2017-12-20T12:25:40.321Z,8.6
2017-12-20T12:26:41.942Z,8.6
2017-12-20T12:27:43.551Z,8.5
2017-12-20T12:28:45.168Z,8.5
2017-12-20T12:29:46.780Z,8.4
2017-12-20T12:30:48.394Z,8.5
2017-12-20T12:31:50.010Z,8.4
2017-12-20T12:32:51.619Z,8.3
2017-12-20T12:33:53.234Z,8.4
2017-12-20T12:34:54.849Z,8.4
2017-12-20T12:35:56.462Z,8.5
2017-12-20T12:36:58.117Z,8.5
2017-12-20T12:37:59.679Z,8.5
2017-12-20T12:39:01.298Z,8.4
2017-12-20T12:40:02.912Z,8.3
2017-12-20T12:41:04.522Z,8.4
2017-12-20T12:42:06.139Z,8.4
2017-12-20T12:43:07.746Z,8.4
2017-12-20T12:44:09.361Z,8.3
2017-12-20T12:45:10.969Z,8.3
2017-12-20T12:46:12.583Z,8.4
2017-12-20T12:47:14.203Z,8.5
2017-12-20T12:48:15.813Z,8.4
2017-12-20T12:49:17.431Z,8.5
2017-12-20T12:50:19.037Z,8.4
2017-12-20T12:51:20.650Z,8.4
2017-12-20T12:52:22.273Z,8.4
2017-12-20T12:53:23.878Z,8.6
2017-12-20T12:54:25.488Z,8.4
2017-12-20T12:55:27.104Z,8.5
2017-12-20T12:56:28.713Z,8.5
2017-12-20T12:57:30.329Z,8.5
2017-12-20T12:58:31.941Z,8.5
2017-12-20T12:59:33.551Z,8.5
2017-12-20T13:00:35.169Z,8.5
2017-12-20T13:01:36.786Z,8.5
2017-12-20T13:02:38.402Z,8.4
2017-12-20T13:03:40.009Z,8.5
2017-12-20T13:04:41.624Z,8.5
2017-12-20T13:05:43.233Z,8.5
2017-12-20T13:06:44.860Z,8.6
2017-12-20T13:07:46.460Z,8.6
2017-12-20T13:08:48.077Z,8.6
2017-12-20T13:09:49.688Z,8.6
2017-12-20T13:10:51.304Z,8.6
2017-12-20T13:11:52.912Z,8.6
2017-12-20T13:12:54.528Z,8.6
2017-12-20T13:13:56.139Z,8.6
2017-12-20T13:14:57.752Z,8.6
2017-12-20T13:15:59.367Z,8.6
2017-12-20T13:17:00.984Z,8.6
2017-12-20T13:18:02.591Z,8.6
2017-12-20T13:19:04.204Z,8.6
2017-12-20T13:20:05.814Z,8.7
2017-12-20T13:21:07.424Z,8.6
2017-12-20T13:22:09.041Z,8.6
2017-12-20T13:23:10.656Z,8.6
2017-12-20T13:24:12.264Z,8.6
2017-12-20T13:25:13.872Z,8.6
2017-12-20T13:26:15.488Z,8.6
2017-12-20T13:27:17.102Z,8.6
2017-12-20T13:28:18.711Z,8.6
2017-12-20T13:29:20.325Z,8.5
2017-12-20T13:30:21.937Z,8.6
2017-12-20T13:31:23.551Z,8.6
2017-12-20T13:32:25.158Z,8.5
2017-12-20T13:33:26.772Z,8.6
2017-12-20T13:34:28.378Z,8.5
2017-12-20T13:35:29.991Z,8.6
2017-12-20T13:36:31.605Z,8.5
2017-12-20T13:37:33.218Z,8.6
2017-12-20T13:38:34.826Z,8.5
2017-12-20T13:39:36.435Z,8.5
2017-12-20T13:40:38.049Z,8.4
2017-12-20T13:41:39.662Z,8.4
2017-12-20T13:42:41.270Z,8.4
2017-12-20T13:43:42.885Z,8.3
2017-12-20T13:44:44.493Z,8.4
2017-12-20T13:45:46.104Z,8.4
2017-12-20T13:46:47.716Z,8.4
2017-12-20T13:47:49.329Z,8.4
2017-12-20T13:48:50.932Z,8.4
2017-12-20T13:49:52.539Z,8.4
2017-12-20T13:50:54.152Z,8.5
2017-12-20T13:51:55.760Z,8.5
2017-12-20T13:52:57.378Z,8.4
2017-12-20T13:53:58.984Z,8.4
2017-12-20T13:55:00.596Z,8.3
2017-12-20T13:56:02.201Z,8.2
2017-12-20T13:57:03.816Z,8.3
2017-12-20T13:58:05.433Z,8.3
2017-12-20T13:59:07.045Z,8.3
2017-12-20T14:00:08.652Z,8.4
2017-12-20T14:01:10.255Z,8.3
2017-12-20T14:02:11.864Z,8.3
2017-12-20T14:03:13.477Z,8.2
2017-12-20T14:04:15.091Z,8.3
2017-12-20T14:05:16.698Z,8.3
2017-12-20T14:06:18.308Z,8.4
2017-12-20T14:07:19.961Z,8.3
2017-12-20T14:08:22.492Z,8.3
2017-12-20T14:09:24.095Z,8.3
2017-12-20T14:10:25.708Z,8.3
2017-12-20T14:11:27.318Z,8.3
2017-12-20T14:12:28.927Z,8.3
2017-12-20T14:13:30.537Z,8.4
2017-12-20T14:14:32.152Z,8.3
2017-12-20T14:15:33.756Z,8.3
2017-12-20T14:16:35.362Z,8.4
2017-12-20T14:17:36.976Z,8.3
2017-12-20T14:18:38.584Z,8.3
2017-12-20T14:19:40.200Z,8.3
2017-12-20T14:20:41.809Z,8.3
2017-12-20T14:21:43.423Z,8.3
2017-12-20T14:22:45.029Z,8.3
2017-12-20T14:23:46.640Z,8.4
2017-12-20T14:24:48.252Z,8.4
2017-12-20T14:25:49.860Z,8.4
2017-12-20T14:26:51.472Z,8.4
2017-12-20T14:27:53.077Z,8.4
2017-12-20T14:28:54.689Z,8.4
2017-12-20T14:29:56.296Z,8.4
2017-12-20T14:30:57.911Z,8.4
2017-12-20T14:31:59.514Z,8.4
2017-12-20T14:33:01.129Z,8.4
2017-12-20T14:34:02.736Z,8.4
2017-12-20T14:35:04.348Z,8.4
2017-12-20T14:36:05.955Z,8.4
2017-12-20T14:37:07.564Z,8.5
2017-12-20T14:38:09.174Z,8.4
2017-12-20T14:39:10.780Z,8.4
2017-12-20T14:40:12.389Z,8.4
2017-12-20T14:41:14.000Z,8.4
2017-12-20T14:42:15.621Z,8.4
2017-12-20T14:43:17.220Z,8.4
2017-12-20T14:44:18.834Z,8.4
2017-12-20T14:45:20.439Z,8.4
2017-12-20T14:46:22.049Z,8.3
2017-12-20T14:47:23.659Z,8.3
2017-12-20T14:48:25.271Z,8.4
2017-12-20T14:49:26.887Z,8.4
2017-12-20T14:50:28.492Z,8.3
2017-12-20T14:51:30.097Z,8.3
2017-12-20T14:52:31.709Z,8.3
2017-12-20T14:53:33.322Z,8.3
2017-12-20T14:54:34.935Z,8.2
2017-12-20T14:55:36.545Z,8.2
2017-12-20T14:56:38.159Z,8.3
2017-12-20T14:57:39.775Z,8.3
2017-12-20T14:58:41.377Z,8.3
2017-12-20T14:59:42.988Z,8.3
2017-12-20T15:00:44.600Z,8.3
2017-12-20T15:01:46.212Z,8.3
2017-12-20T15:02:47.817Z,8.2
2017-12-20T15:03:49.430Z,8.2
2017-12-20T15:04:51.045Z,8.2
2017-12-20T15:05:52.651Z,8.2
2017-12-20T15:06:54.258Z,8.2
2017-12-20T15:07:55.871Z,8.2
2017-12-20T15:08:57.476Z,8.3
2017-12-20T15:09:59.088Z,8.2
2017-12-20T15:11:00.694Z,8.1
2017-12-20T15:12:02.305Z,8.2
2017-12-20T15:13:03.911Z,8.2
2017-12-20T15:14:05.519Z,8.2
2017-12-20T15:15:07.128Z,8.2
2017-12-20T15:16:08.935Z,8.2
2017-12-20T15:17:10.482Z,8.2
2017-12-20T15:18:12.089Z,8.3
2017-12-20T15:19:13.703Z,8.2
2017-12-20T15:20:15.309Z,8.3
2017-12-20T15:21:16.917Z,8.3
2017-12-20T15:22:18.524Z,8.2
2017-12-20T15:23:20.131Z,8.2
2017-12-20T15:24:21.741Z,8.2
2017-12-20T15:25:23.347Z,8.2
2017-12-20T15:26:24.953Z,8.2
2017-12-20T15:27:26.564Z,8.2
2017-12-20T15:28:28.168Z,8.2
2017-12-20T15:29:29.774Z,8.2
2017-12-20T15:30:31.386Z,8.1
2017-12-20T15:31:32.987Z,8.2
2017-12-20T15:32:34.601Z,8.2
2017-12-20T15:33:36.206Z,8.2
2017-12-20T15:34:37.816Z,8.1
2017-12-20T15:35:39.421Z,8.3
2017-12-20T15:36:41.035Z,8.2
2017-12-20T15:37:42.643Z,8.2
2017-12-20T15:38:44.253Z,8.1
2017-12-20T15:39:45.862Z,8.2
2017-12-20T15:40:47.467Z,8.1
2017-12-20T15:41:49.078Z,8.2
2017-12-20T15:42:50.684Z,8.2
2017-12-20T15:43:52.287Z,8.2
2017-12-20T15:44:53.897Z,8.1
2017-12-20T15:45:55.504Z,8.1
2017-12-20T15:46:57.113Z,8.1
2017-12-20T15:47:58.717Z,8.2
2017-12-20T15:49:00.319Z,8.0
2017-12-20T15:50:01.927Z,8.1
2017-12-20T15:51:03.530Z,8.1
2017-12-20T15:52:05.140Z,8.1
2017-12-20T15:53:06.744Z,8.0
2017-12-20T15:54:08.357Z,8.0
2017-12-20T15:55:09.960Z,8.0
2017-12-20T15:56:11.568Z,8.2
2017-12-20T15:57:13.176Z,8.2
2017-12-20T15:58:14.814Z,8.1
2017-12-20T15:59:16.386Z,8.1
2017-12-20T16:00:17.993Z,8.0
2017-12-20T16:01:19.601Z,8.0
2017-12-20T16:02:21.201Z,8.1
2017-12-20T16:03:22.812Z,8.1
2017-12-20T16:04:24.416Z,8.1
2017-12-20T16:05:26.018Z,8.1
2017-12-20T16:06:27.668Z,8.0
2017-12-20T16:07:29.239Z,8.0
2017-12-20T16:08:30.843Z,8.0
2017-12-20T16:09:32.447Z,8.0
2017-12-20T16:10:34.056Z,8.1
2017-12-20T16:11:35.663Z,8.0
2017-12-20T16:12:37.269Z,8.0
2017-12-20T16:13:38.873Z,8.1
2017-12-20T16:14:40.483Z,8.2
2017-12-20T16:15:42.092Z,8.2
2017-12-20T16:16:43.696Z,8.0
2017-12-20T16:17:45.300Z,8.0
2017-12-20T16:18:46.904Z,8.2
2017-12-20T16:19:48.511Z,8.1
2017-12-20T16:20:50.120Z,8.1
2017-12-20T16:21:51.727Z,8.1
2017-12-20T16:22:53.330Z,8.0
2017-12-20T16:23:54.936Z,8.1
2017-12-20T16:24:56.598Z,8.0
2017-12-20T16:25:58.151Z,8.1
2017-12-20T16:26:59.753Z,8.0
2017-12-20T16:28:01.361Z,8.1
2017-12-20T16:29:02.967Z,8.0
2017-12-20T16:30:04.579Z,8.0
2017-12-20T16:31:06.180Z,8.0
2017-12-20T16:32:07.785Z,8.0
2017-12-20T16:33:09.394Z,8.0
2017-12-20T16:34:11.003Z,8.1
2017-12-20T16:35:12.612Z,8.1
2017-12-20T16:36:14.216Z,8.1
2017-12-20T16:37:15.826Z,8.1
2017-12-20T16:38:17.437Z,8.0
2017-12-20T16:39:19.037Z,8.0
2017-12-20T16:40:20.641Z,8.1
2017-12-20T16:41:22.247Z,8.1
2017-12-20T16:42:23.851Z,8.1
2017-12-20T16:43:25.464Z,8.1
2017-12-20T16:44:27.073Z,8.1
2017-12-20T16:45:28.671Z,8.0
2017-12-20T16:46:30.276Z,8.0
2017-12-20T16:47:31.884Z,8.1
2017-12-20T16:48:33.496Z,8.0
2017-12-20T16:49:35.095Z,8.0
2017-12-20T16:50:36.703Z,8.1
2017-12-20T16:51:38.312Z,8.2
2017-12-20T16:52:39.922Z,8.0
2017-12-20T16:53:41.524Z,8.1
2017-12-20T16:54:43.140Z,8.0
2017-12-20T16:55:44.734Z,8.1
2017-12-20T16:56:46.347Z,8.0
2017-12-20T16:57:47.949Z,8.1
2017-12-20T16:58:49.562Z,8.0
2017-12-20T16:59:51.167Z,8.0
2017-12-20T17:00:52.771Z,8.1
2017-12-20T17:01:54.378Z,8.0
2017-12-20T17:02:55.982Z,8.0
2017-12-20T17:03:57.595Z,8.0
2017-12-20T17:04:59.197Z,8.1
2017-12-20T17:06:00.807Z,8.1
2017-12-20T17:07:02.411Z,8.0
2017-12-20T17:08:04.019Z,8.0
2017-12-20T17:09:05.627Z,8.1
2017-12-20T17:10:07.268Z,8.1
2017-12-20T17:11:08.876Z,8.0
2017-12-20T17:12:10.487Z,8.2
2017-12-20T17:13:12.094Z,8.0
2017-12-20T17:14:13.702Z,8.1
2017-12-20T17:15:15.305Z,8.2
2017-12-20T17:16:16.913Z,8.1
2017-12-20T17:17:18.522Z,8.1
2017-12-20T17:18:20.124Z,8.1
2017-12-20T17:19:21.734Z,8.1
2017-12-20T17:20:23.338Z,8.1
2017-12-20T17:21:24.951Z,8.1
2017-12-20T17:22:26.551Z,8.0
2017-12-20T17:23:28.161Z,8.2
2017-12-20T17:24:29.763Z,8.1
2017-12-20T17:25:31.368Z,8.1
2017-12-20T17:26:32.979Z,8.0
2017-12-20T17:27:34.587Z,8.0
2017-12-20T17:28:36.191Z,8.0
2017-12-20T17:29:37.795Z,8.1
2017-12-20T17:30:39.403Z,8.0
2017-12-20T17:31:41.010Z,8.0
2017-12-20T17:32:42.613Z,8.0
2017-12-20T17:33:44.225Z,8.1
2017-12-20T17:34:45.827Z,8.0
2017-12-20T17:35:47.431Z,8.1
2017-12-20T17:36:49.040Z,8.1
2017-12-20T17:37:50.648Z,8.1
2017-12-20T17:38:52.250Z,8.1
2017-12-20T17:39:53.856Z,8.1
2017-12-20T17:40:55.466Z,8.1
2017-12-20T17:41:57.072Z,8.0
2017-12-20T17:42:58.682Z,8.0
2017-12-20T17:44:00.285Z,8.2
2017-12-20T17:45:01.949Z,8.1
2017-12-20T17:46:03.551Z,8.1
2017-12-20T17:47:05.164Z,8.1
2017-12-20T17:48:06.770Z,8.2
2017-12-20T17:49:08.383Z,8.1
2017-12-20T17:50:09.986Z,8.1
2017-12-20T17:51:11.597Z,8.2
2017-12-20T17:52:13.200Z,8.2
2017-12-20T17:53:14.810Z,8.1
2017-12-20T17:54:16.417Z,8.1
2017-12-20T17:55:18.022Z,8.1
2017-12-20T17:56:19.629Z,8.2
2017-12-20T17:57:21.239Z,8.1
2017-12-20T17:58:22.845Z,8.1
2017-12-20T17:59:24.447Z,8.1
2017-12-20T18:00:26.057Z,8.2
2017-12-20T18:01:27.661Z,8.0
2017-12-20T18:02:29.270Z,8.1
2017-12-20T18:03:30.875Z,8.2
2017-12-20T18:04:32.486Z,8.2
2017-12-20T18:05:34.088Z,8.1
2017-12-20T18:06:35.696Z,8.1
2017-12-20T18:07:37.298Z,8.2
2017-12-20T18:08:38.908Z,8.0
2017-12-20T18:09:40.515Z,8.0
2017-12-20T18:10:42.118Z,8.0
2017-12-20T18:11:43.732Z,8.2
2017-12-20T18:12:45.335Z,8.0
2017-12-20T18:13:46.937Z,8.1
2017-12-20T18:14:48.546Z,8.1
2017-12-20T18:15:50.150Z,8.1
2017-12-20T18:16:51.756Z,8.2
2017-12-20T18:17:53.365Z,8.1
2017-12-20T18:18:54.975Z,8.1
2017-12-20T18:19:56.578Z,8.1
2017-12-20T18:20:58.181Z,8.2
2017-12-20T18:21:59.793Z,8.2
2017-12-20T18:23:01.400Z,8.2
2017-12-20T18:24:03.001Z,8.2
2017-12-20T18:25:05.207Z,8.2
2017-12-20T18:26:06.816Z,8.2
2017-12-20T18:27:08.416Z,8.2
2017-12-20T18:28:10.028Z,8.2
2017-12-20T18:29:11.630Z,8.1
2017-12-20T18:30:13.242Z,8.1
2017-12-20T18:31:14.846Z,8.2
2017-12-20T18:32:16.459Z,8.1
2017-12-20T18:33:18.067Z,8.1
2017-12-20T18:34:19.666Z,8.1
2017-12-20T18:35:21.271Z,8.1
2017-12-20T18:36:22.880Z,8.1
2017-12-20T18:37:24.487Z,8.1
2017-12-20T18:38:26.092Z,8.2
2017-12-20T18:39:27.700Z,8.1
2017-12-20T18:40:29.310Z,8.2
2017-12-20T18:41:30.915Z,8.1
2017-12-20T18:42:32.553Z,8.2
2017-12-20T18:43:34.167Z,8.1
2017-12-20T18:44:35.732Z,8.1
2017-12-20T18:45:37.341Z,8.2
2017-12-20T18:46:38.945Z,8.1
2017-12-20T18:47:40.555Z,8.2
2017-12-20T18:48:42.158Z,8.1
2017-12-20T18:49:43.762Z,8.2
2017-12-20T18:50:45.367Z,8.2
2017-12-20T18:51:46.974Z,8.1
2017-12-20T18:52:48.584Z,8.2
2017-12-20T18:53:50.191Z,8.1
2017-12-20T18:54:51.801Z,8.2
2017-12-20T18:55:53.406Z,8.1
2017-12-20T18:56:55.009Z,8.1
2017-12-20T18:57:56.613Z,8.2
2017-12-20T18:58:58.223Z,8.0
2017-12-20T18:59:59.825Z,8.1
2017-12-20T19:01:01.440Z,8.1
2017-12-20T19:02:03.043Z,8.1
2017-12-20T19:03:04.654Z,8.0
2017-12-20T19:04:06.253Z,8.2
2017-12-20T19:05:07.862Z,8.1
2017-12-20T19:06:09.469Z,8.1
2017-12-20T19:07:11.077Z,8.0
2017-12-20T19:08:12.681Z,8.0
2017-12-20T19:09:14.289Z,8.2
2017-12-20T19:10:15.900Z,8.0
2017-12-20T19:11:17.501Z,8.1
2017-12-20T19:12:19.105Z,8.1
2017-12-20T19:13:20.718Z,8.1
2017-12-20T19:14:22.326Z,8.1
2017-12-20T19:15:23.929Z,8.2
2017-12-20T19:16:25.539Z,8.0
2017-12-20T19:17:27.140Z,8.1
2017-12-20T19:18:28.749Z,8.1
2017-12-20T19:19:30.354Z,8.1
2017-12-20T19:20:31.963Z,8.1
2017-12-20T19:21:33.571Z,8.2
2017-12-20T19:22:35.184Z,8.2
2017-12-20T19:23:36.790Z,8.1
2017-12-20T19:24:38.387Z,8.2
2017-12-20T19:25:40.000Z,8.1
2017-12-20T19:26:41.606Z,8.2
2017-12-20T19:27:43.213Z,8.2
2017-12-20T19:28:44.821Z,8.1
2017-12-20T19:29:46.424Z,8.2
2017-12-20T19:30:48.034Z,8.1
2017-12-20T19:31:49.633Z,8.1
2017-12-20T19:32:51.248Z,8.1
2017-12-20T19:33:52.849Z,8.1
2017-12-20T19:34:54.460Z,8.1
2017-12-20T19:35:56.059Z,8.1
2017-12-20T19:36:57.667Z,8.1
2017-12-20T19:37:59.272Z,8.2
2017-12-20T19:39:00.880Z,8.2
2017-12-20T19:40:02.485Z,8.2
2017-12-20T19:41:04.098Z,8.2
2017-12-20T19:42:05.694Z,8.1
2017-12-20T19:43:07.300Z,8.2
2017-12-20T19:44:08.908Z,8.2
2017-12-20T19:45:10.514Z,8.2
2017-12-20T19:46:12.124Z,8.2
2017-12-20T19:47:13.723Z,8.2
2017-12-20T19:48:15.333Z,8.2
2017-12-20T19:49:16.941Z,8.2
2017-12-20T19:50:18.547Z,8.2
2017-12-20T19:51:20.215Z,8.2
2017-12-20T19:52:21.764Z,8.2
2017-12-20T19:53:23.365Z,8.2
2017-12-20T19:54:24.975Z,8.2
2017-12-20T19:55:26.577Z,8.1
2017-12-20T19:56:28.184Z,8.2
2017-12-20T19:57:29.789Z,8.2
2017-12-20T19:58:31.397Z,8.1
2017-12-20T19:59:33.004Z,8.2